createdAt,value
2022-10-09T00:01:11.570Z,6.56
2022-10-09T00:03:40.028Z,6.56
2022-10-09T00:06:33.226Z,6.57
2022-10-09T00:09:02.216Z,6.55
2022-10-09T00:11:30.765Z,6.47
2022-10-09T00:13:58.546Z,6.47
2022-10-09T00:16:25.961Z,6.48
2022-10-09T00:18:53.379Z,6.45
2022-10-09T00:21:22.997Z,6.50
2022-10-09T00:23:51.034Z,6.50
2022-10-09T00:26:18.194Z,6.50
2022-10-09T00:28:45.961Z,6.44
2022-10-09T00:31:14.054Z,6.41
2022-10-09T00:33:41.026Z,6.40
2022-10-09T00:36:11.823Z,6.35
2022-10-09T00:38:39.576Z,6.34
2022-10-09T00:41:07.916Z,6.36
2022-10-09T00:43:47.276Z,6.35
2022-10-09T00:46:26.612Z,6.29
2022-10-09T00:49:07.709Z,6.28
2022-10-09T00:51:34.978Z,6.23
2022-10-09T00:54:04.057Z,6.24
2022-10-09T00:56:31.470Z,6.20
2022-10-09T00:58:58.720Z,6.15
2022-10-09T01:01:25.987Z,6.05
2022-10-09T01:03:53.007Z,6.05
2022-10-09T01:06:32.739Z,6.06
2022-10-09T01:09:08.639Z,5.99
2022-10-09T01:11:44.313Z,6.01
2022-10-09T01:14:17.404Z,5.99
2022-10-09T01:17:00.461Z,5.96
2022-10-09T01:20:04.484Z,5.99
2022-10-09T01:23:15.434Z,5.94
2022-10-09T01:25:50.721Z,5.88
2022-10-09T01:28:19.455Z,5.87
2022-10-09T01:30:50.181Z,5.86
2022-10-09T01:33:17.713Z,5.86
2022-10-09T01:35:45.158Z,5.84
2022-10-09T01:38:12.399Z,5.78
2022-10-09T01:40:39.503Z,5.72
2022-10-09T01:43:06.480Z,5.74
2022-10-09T01:45:39.222Z,5.72
2022-10-09T01:48:07.378Z,5.77
2022-10-09T01:50:41.085Z,5.79
2022-10-09T01:53:10.821Z,5.75
2022-10-09T01:55:45.202Z,5.74
2022-10-09T01:58:19.465Z,5.70
2022-10-09T02:00:53.827Z,5.73
2022-10-09T02:03:21.173Z,5.68
2022-10-09T02:05:49.896Z,5.67
2022-10-09T02:08:19.101Z,5.64
2022-10-09T02:10:47.478Z,5.63
2022-10-09T02:13:14.609Z,5.58
2022-10-09T02:15:48.664Z,5.60
2022-10-09T02:18:19.611Z,5.56
2022-10-09T02:20:53.819Z,5.62
2022-10-09T02:23:23.199Z,5.53
2022-10-09T02:25:50.623Z,5.57
2022-10-09T02:28:17.739Z,5.55
2022-10-09T02:30:55.668Z,5.57
2022-10-09T02:33:28.250Z,5.52
2022-10-09T02:35:55.447Z,5.49
2022-10-09T02:38:22.407Z,5.50
2022-10-09T02:40:49.545Z,5.50
2022-10-09T02:43:16.588Z,5.52
2022-10-09T02:45:43.785Z,5.51
2022-10-09T02:48:13.234Z,5.52
2022-10-09T02:50:40.286Z,5.52
2022-10-09T02:53:07.203Z,5.54
2022-10-09T02:55:34.174Z,5.53
2022-10-09T02:58:01.147Z,5.56
2022-10-09T03:00:28.313Z,5.56
2022-10-09T03:02:55.512Z,5.53
2022-10-09T03:05:22.665Z,5.52
2022-10-09T03:07:51.740Z,5.51
2022-10-09T03:10:20.442Z,5.49
2022-10-09T03:12:49.368Z,5.47
2022-10-09T03:15:16.943Z,5.41
2022-10-09T03:17:43.882Z,5.45
2022-10-09T03:20:13.748Z,5.42
2022-10-09T03:22:40.700Z,5.41
2022-10-09T03:25:08.036Z,5.41
2022-10-09T03:27:36.108Z,5.41
2022-10-09T03:30:03.937Z,5.41
2022-10-09T03:32:32.448Z,5.43
2022-10-09T03:34:59.660Z,5.37
2022-10-09T03:37:26.526Z,5.43
2022-10-09T03:39:56.312Z,5.42
2022-10-09T03:42:23.256Z,5.47
2022-10-09T03:44:50.330Z,5.47
2022-10-09T03:47:17.641Z,5.46
2022-10-09T03:49:44.662Z,5.47
2022-10-09T03:52:11.680Z,5.48
2022-10-09T03:54:38.610Z,5.46
2022-10-09T03:57:06.400Z,5.48
2022-10-09T03:59:33.287Z,5.47
2022-10-09T04:02:04.463Z,5.43
2022-10-09T04:04:31.504Z,5.41
2022-10-09T04:06:58.365Z,5.41
2022-10-09T04:09:25.412Z,5.44
2022-10-09T04:11:52.600Z,5.48
2022-10-09T04:14:19.472Z,5.52
2022-10-09T04:16:46.531Z,5.55
2022-10-09T04:19:17.751Z,5.60
2022-10-09T04:21:44.813Z,5.60
2022-10-09T04:24:11.769Z,5.59
2022-10-09T04:26:43.055Z,5.61
2022-10-09T04:29:11.429Z,5.60
2022-10-09T04:31:38.558Z,5.57
2022-10-09T04:34:07.960Z,5.57
2022-10-09T04:36:34.947Z,5.62
2022-10-09T04:39:01.991Z,5.62
2022-10-09T04:41:38.119Z,5.62
2022-10-09T04:44:08.585Z,5.64
2022-10-09T04:46:38.856Z,5.65
2022-10-09T04:49:05.811Z,5.71
2022-10-09T04:51:32.998Z,5.74
2022-10-09T04:54:00.902Z,5.77
2022-10-09T04:56:28.135Z,5.77
2022-10-09T04:58:55.083Z,5.87
2022-10-09T05:01:24.359Z,5.94
2022-10-09T05:03:53.114Z,6.02
2022-10-09T05:06:23.760Z,6.06
2022-10-09T05:08:51.362Z,6.11
2022-10-09T05:11:23.655Z,6.18
2022-10-09T05:13:53.413Z,6.30
2022-10-09T05:16:26.677Z,6.37
2022-10-09T05:18:57.903Z,6.46
2022-10-09T05:21:25.992Z,6.60
2022-10-09T05:23:56.352Z,6.72
2022-10-09T05:26:25.121Z,6.83
2022-10-09T05:28:52.453Z,6.99
2022-10-09T05:31:27.356Z,7.11
2022-10-09T05:33:56.302Z,7.22
2022-10-09T05:36:23.234Z,7.33
2022-10-09T05:38:50.251Z,7.44
2022-10-09T05:41:19.239Z,7.57
2022-10-09T05:43:47.779Z,7.73
2022-10-09T05:46:20.198Z,7.91
2022-10-09T05:48:52.640Z,8.06
2022-10-09T05:51:30.606Z,8.26
2022-10-09T05:53:58.088Z,8.43
2022-10-09T05:56:27.436Z,8.57
2022-10-09T05:59:05.176Z,8.72
2022-10-09T06:01:34.766Z,8.83
2022-10-09T06:04:02.734Z,8.92
2022-10-09T06:06:32.594Z,9.01
2022-10-09T06:09:07.193Z,9.11
2022-10-09T06:11:36.584Z,9.14
2022-10-09T06:14:06.151Z,9.07
2022-10-09T06:16:38.945Z,9.09
2022-10-09T06:19:07.832Z,9.14
2022-10-09T06:21:34.957Z,9.16
2022-10-09T06:24:03.046Z,9.19
2022-10-09T06:26:31.313Z,9.21
2022-10-09T06:29:00.745Z,9.30
2022-10-09T06:31:30.236Z,9.43
2022-10-09T06:34:00.031Z,9.58
2022-10-09T06:36:29.607Z,9.69
2022-10-09T06:38:58.050Z,9.87
2022-10-09T06:41:26.621Z,10.06
2022-10-09T06:43:58.470Z,10.19
2022-10-09T06:49:32.804Z,10.40
2022-10-09T06:51:59.806Z,10.45
2022-10-09T06:54:26.715Z,10.45
2022-10-09T06:56:55.376Z,10.52
2022-10-09T06:59:22.449Z,10.59
2022-10-09T07:01:49.425Z,10.68
2022-10-09T07:04:23.767Z,10.78
2022-10-09T07:06:51.007Z,10.86
2022-10-09T07:09:18.036Z,10.96
2022-10-09T07:11:46.974Z,10.99
2022-10-09T07:14:16.104Z,11.03
2022-10-09T07:16:47.581Z,11.10
2022-10-09T07:19:17.685Z,11.26
2022-10-09T07:21:47.218Z,11.44
2022-10-09T07:24:15.275Z,11.68
2022-10-09T07:26:44.774Z,11.84
2022-10-09T07:29:15.113Z,11.98
2022-10-09T07:31:42.031Z,12.14
2022-10-09T07:34:09.015Z,12.19
2022-10-09T07:36:40.601Z,12.36
2022-10-09T07:39:07.653Z,12.59
2022-10-09T07:41:34.864Z,12.77
2022-10-09T07:44:01.776Z,13.01
2022-10-09T07:46:33.243Z,13.12
2022-10-09T07:49:02.063Z,13.37
2022-10-09T07:51:30.152Z,13.57
2022-10-09T07:53:58.005Z,13.93
2022-10-09T07:56:29.166Z,14.24
2022-10-09T07:59:13.316Z,14.45
2022-10-09T08:01:42.130Z,14.84
2022-10-09T08:04:10.200Z,14.86
2022-10-09T08:06:37.247Z,14.86
2022-10-09T08:09:05.892Z,14.74
2022-10-09T08:14:19.308Z,15.57
2022-10-09T08:16:47.123Z,15.92
2022-10-09T08:19:14.001Z,16.19
2022-10-09T08:21:43.713Z,16.03
2022-10-09T08:24:13.245Z,15.84
2022-10-09T08:26:40.656Z,15.78
2022-10-09T08:29:09.776Z,16.11
2022-10-09T08:31:37.703Z,16.34
2022-10-09T08:34:04.745Z,16.58
2022-10-09T08:36:34.198Z,16.62
2022-10-09T08:39:01.359Z,16.52
2022-10-09T08:41:58.503Z,16.99
2022-10-09T08:44:32.123Z,16.90
2022-10-09T08:47:08.255Z,16.94
2022-10-09T08:49:57.024Z,17.65
2022-10-09T08:52:41.777Z,17.69
2022-10-09T08:55:31.235Z,17.91
2022-10-09T08:58:04.544Z,18.10
2022-10-09T09:00:46.350Z,18.28
2022-10-09T09:03:48.752Z,18.15
2022-10-09T09:07:19.129Z,18.58
2022-10-09T09:15:53.285Z,19.12
2022-10-09T09:18:51.065Z,19.25
2022-10-09T09:21:38.862Z,18.79
2022-10-09T09:24:14.130Z,19.00
2022-10-09T09:26:51.903Z,19.61
2022-10-09T09:29:23.344Z,19.09
2022-10-09T09:31:54.105Z,18.39
2022-10-09T09:34:41.404Z,19.24
2022-10-09T09:37:11.656Z,19.79
2022-10-09T09:42:27.934Z,19.88
2022-10-09T09:45:04.531Z,19.79
2022-10-09T09:47:41.364Z,19.16
2022-10-09T09:50:23.312Z,19.80
2022-10-09T09:52:56.258Z,19.70
2022-10-09T09:55:25.667Z,19.33
2022-10-09T09:57:52.840Z,19.32
2022-10-09T10:00:30.237Z,18.56
2022-10-09T10:03:11.463Z,18.82
2022-10-09T10:05:39.480Z,19.44
2022-10-09T10:08:25.826Z,19.65
2022-10-09T10:10:55.360Z,19.42
2022-10-09T10:13:31.082Z,19.61
2022-10-09T10:15:58.524Z,19.92
2022-10-09T10:18:28.852Z,20.11
2022-10-09T10:20:57.854Z,20.37
2022-10-09T10:23:40.990Z,20.80
2022-10-09T10:26:25.594Z,21.30
2022-10-09T10:29:17.310Z,20.86
2022-10-09T10:31:51.531Z,21.08
2022-10-09T10:34:33.173Z,20.16
2022-10-09T10:37:05.545Z,19.38
2022-10-09T10:40:16.619Z,18.87
2022-10-09T10:42:57.518Z,18.67
2022-10-09T10:45:51.474Z,18.34
2022-10-09T10:48:39.328Z,18.15
2022-10-09T10:51:31.343Z,18.39
2022-10-09T10:54:16.512Z,18.13
2022-10-09T10:56:47.966Z,18.44
2022-10-09T10:59:41.575Z,18.80
2022-10-09T11:02:33.118Z,19.28
2022-10-09T11:05:47.368Z,19.73
2022-10-09T11:08:31.329Z,18.72
2022-10-09T11:11:25.743Z,18.72
2022-10-09T11:14:08.923Z,19.10
2022-10-09T11:16:53.146Z,19.15
2022-10-09T11:19:26.289Z,18.53
2022-10-09T11:22:03.447Z,18.48
2022-10-09T11:24:58.512Z,18.74
2022-10-09T11:28:11.617Z,18.54
2022-10-09T11:30:46.442Z,18.10
2022-10-09T11:33:28.902Z,17.56
2022-10-09T11:36:23.330Z,17.30
2022-10-09T11:39:12.785Z,16.98
2022-10-09T11:41:40.493Z,16.95
2022-10-09T11:44:26.198Z,17.05
2022-10-09T11:47:22.064Z,17.14
2022-10-09T11:49:57.928Z,17.07
2022-10-09T11:52:27.792Z,17.05
2022-10-09T11:55:00.570Z,17.13
2022-10-09T11:57:29.233Z,17.25
2022-10-09T12:00:10.065Z,17.26
2022-10-09T12:02:37.990Z,16.86
2022-10-09T12:05:30.056Z,16.66
2022-10-09T12:08:19.234Z,16.31
2022-10-09T12:11:12.712Z,16.06
2022-10-09T12:13:41.030Z,15.94
2022-10-09T12:19:37.189Z,15.71
2022-10-09T12:22:07.958Z,15.56
2022-10-09T12:24:44.828Z,15.46
2022-10-09T12:27:31.505Z,15.39
2022-10-09T12:30:14.286Z,15.33
2022-10-09T12:33:08.740Z,15.29
2022-10-09T12:35:38.274Z,15.24
2022-10-09T12:38:27.255Z,15.20
2022-10-09T12:40:57.240Z,15.10
2022-10-09T12:49:23.288Z,14.90
2022-10-09T12:51:56.379Z,14.89
2022-10-09T12:54:25.356Z,14.85
2022-10-09T12:56:54.750Z,14.79
2022-10-09T12:59:24.990Z,14.77
2022-10-09T13:01:56.285Z,14.72
2022-10-09T13:04:34.151Z,14.66
2022-10-09T13:07:09.073Z,14.63
2022-10-09T13:09:39.705Z,14.58
2022-10-09T13:12:10.549Z,14.56
2022-10-09T13:15:00.553Z,14.51
2022-10-09T13:17:40.367Z,14.48
2022-10-09T13:20:30.286Z,14.46
2022-10-09T13:23:00.394Z,14.35
2022-10-09T13:25:33.010Z,13.81
2022-10-09T13:28:00.171Z,13.52
2022-10-09T13:30:29.003Z,13.31
2022-10-09T13:32:56.495Z,13.15
2022-10-09T13:35:23.393Z,12.96
2022-10-09T13:37:50.634Z,12.77
2022-10-09T13:40:20.933Z,12.66
2022-10-09T13:42:56.992Z,12.57
2022-10-09T13:45:24.132Z,12.46
2022-10-09T13:47:51.872Z,12.42
2022-10-09T13:50:22.042Z,12.29
2022-10-09T13:52:49.242Z,12.11
2022-10-09T13:55:16.327Z,12.05
2022-10-09T13:57:44.742Z,11.95
2022-10-09T14:00:13.874Z,11.89
2022-10-09T14:02:45.201Z,11.88
2022-10-09T14:05:14.759Z,11.93
2022-10-09T14:07:41.979Z,11.97
2022-10-09T14:10:09.543Z,11.92
2022-10-09T14:12:36.835Z,11.89
2022-10-09T14:15:11.499Z,11.84
2022-10-09T14:17:38.587Z,11.77
2022-10-09T14:20:06.765Z,11.63
2022-10-09T14:22:33.691Z,11.59
2022-10-09T14:25:00.735Z,11.51
2022-10-09T14:27:27.668Z,11.44
2022-10-09T14:29:57.298Z,11.43
2022-10-09T14:32:24.509Z,11.36
2022-10-09T14:34:56.477Z,11.41
2022-10-09T14:37:40.441Z,11.38
2022-10-09T14:40:10.468Z,11.35
2022-10-09T14:42:38.929Z,11.26
2022-10-09T14:45:12.349Z,11.19
2022-10-09T14:47:40.775Z,11.12
2022-10-09T14:50:12.326Z,10.99
2022-10-09T14:52:39.689Z,10.85
2022-10-09T14:55:09.936Z,10.67
2022-10-09T14:57:38.419Z,10.62
2022-10-09T15:00:10.157Z,10.63
2022-10-09T15:02:37.501Z,10.56
2022-10-09T15:05:05.833Z,10.54
2022-10-09T15:07:33.862Z,10.53
2022-10-09T15:10:00.807Z,10.43
2022-10-09T15:12:27.711Z,10.47
2022-10-09T15:14:54.725Z,10.52
2022-10-09T15:17:22.599Z,10.48
2022-10-09T15:19:49.773Z,10.41
2022-10-09T15:22:20.380Z,10.48
2022-10-09T15:24:48.022Z,10.44
2022-10-09T15:27:14.992Z,10.46
2022-10-09T15:29:41.942Z,10.42
2022-10-09T15:32:11.039Z,10.40
2022-10-09T15:34:41.118Z,10.44
2022-10-09T15:37:11.950Z,10.35
2022-10-09T15:39:39.529Z,10.28
2022-10-09T15:42:09.006Z,10.23
2022-10-09T15:44:41.926Z,10.21
2022-10-09T15:47:08.980Z,10.14
2022-10-09T15:49:40.907Z,10.12
2022-10-09T15:52:08.140Z,10.08
2022-10-09T15:54:35.542Z,10.08
2022-10-09T15:57:02.620Z,10.07
2022-10-09T15:59:31.768Z,10.08
2022-10-09T16:01:58.895Z,10.06
2022-10-09T16:04:28.607Z,10.03
2022-10-09T16:06:55.684Z,10.02
2022-10-09T16:09:24.860Z,10.00
2022-10-09T16:11:51.695Z,9.98
2022-10-09T16:14:20.063Z,10.03
2022-10-09T16:16:52.707Z,10.04
2022-10-09T16:19:39.168Z,10.11
2022-10-09T16:22:09.232Z,10.03
2022-10-09T16:24:41.327Z,10.01
2022-10-09T16:27:11.828Z,9.95
2022-10-09T16:29:40.090Z,9.89
2022-10-09T16:32:07.017Z,9.90
2022-10-09T16:34:35.740Z,9.90
2022-10-09T16:37:02.751Z,9.94
2022-10-09T16:39:32.907Z,9.92
2022-10-09T16:42:03.837Z,9.86
2022-10-09T16:44:31.597Z,9.90
2022-10-09T16:47:02.205Z,9.86
2022-10-09T16:49:29.283Z,9.78
2022-10-09T16:51:56.335Z,9.81
2022-10-09T16:54:26.159Z,9.82
2022-10-09T16:56:53.155Z,9.88
2022-10-09T17:02:09.223Z,9.87
2022-10-09T17:04:48.105Z,10.06
2022-10-09T17:07:20.554Z,10.05
2022-10-09T17:10:00.430Z,9.91
2022-10-09T17:12:28.878Z,9.84
2022-10-09T17:15:16.423Z,9.86
2022-10-09T17:17:43.741Z,9.76
2022-10-09T17:20:11.008Z,9.88
2022-10-09T17:22:40.574Z,9.86
2022-10-09T17:25:16.415Z,9.85
2022-10-09T17:27:54.506Z,9.77
2022-10-09T17:30:25.843Z,9.74
2022-10-09T17:32:57.065Z,9.72
2022-10-09T17:38:06.355Z,9.70
2022-10-09T17:40:37.944Z,9.71
2022-10-09T17:43:07.312Z,9.68
2022-10-09T17:45:44.256Z,9.67
2022-10-09T17:48:12.020Z,9.64
2022-10-09T17:50:40.458Z,9.66
2022-10-09T17:53:12.356Z,9.58
2022-10-09T17:55:39.526Z,9.53
2022-10-09T17:58:08.747Z,9.54
2022-10-09T18:00:39.367Z,9.50
2022-10-09T18:03:07.209Z,9.49
2022-10-09T18:05:47.182Z,9.49
2022-10-09T18:08:17.397Z,9.44
2022-10-09T18:10:44.708Z,9.44
2022-10-09T18:13:11.763Z,9.44
2022-10-09T18:15:41.279Z,9.42
2022-10-09T18:18:09.986Z,9.41
2022-10-09T18:20:39.300Z,9.44
2022-10-09T18:25:57.434Z,9.38
2022-10-09T18:30:56.314Z,9.37
2022-10-09T18:33:23.820Z,9.37
2022-10-09T18:35:50.936Z,9.39
2022-10-09T18:38:17.844Z,9.38
2022-10-09T18:40:49.172Z,9.35
2022-10-09T18:43:24.775Z,9.33
2022-10-09T18:45:51.947Z,9.27
2022-10-09T18:48:23.315Z,9.34
2022-10-09T18:51:19.205Z,9.42
2022-10-09T18:53:51.963Z,9.40
2022-10-09T18:56:24.289Z,9.36
2022-10-09T18:58:52.406Z,9.38
2022-10-09T19:01:19.880Z,9.44
2022-10-09T19:03:49.944Z,9.49
2022-10-09T19:06:18.608Z,9.48
2022-10-09T19:08:46.360Z,9.51
2022-10-09T19:11:14.761Z,9.48
2022-10-09T19:16:37.753Z,9.48
2022-10-09T19:19:06.300Z,9.38
2022-10-09T19:21:33.635Z,9.28
2022-10-09T19:24:06.372Z,9.37
2022-10-09T19:26:39.821Z,9.21
2022-10-09T19:29:10.930Z,9.24
2022-10-09T19:31:42.390Z,9.23
2022-10-09T19:34:14.461Z,9.34
2022-10-09T19:36:43.264Z,9.33
2022-10-09T19:39:11.254Z,9.37
2022-10-09T19:41:39.051Z,9.37
2022-10-09T19:44:06.021Z,9.38
2022-10-09T19:46:32.891Z,9.41
2022-10-09T19:49:02.714Z,9.44
2022-10-09T19:51:29.972Z,9.49
2022-10-09T19:53:58.917Z,9.46
2022-10-09T19:56:51.738Z,9.46
2022-10-09T19:59:18.818Z,9.42
2022-10-09T20:01:56.660Z,9.41
2022-10-09T20:04:29.687Z,9.35
2022-10-09T20:07:01.942Z,9.37
2022-10-09T20:09:29.047Z,9.33
2022-10-09T20:11:56.056Z,9.47
2022-10-09T20:14:22.952Z,9.43
2022-10-09T20:16:49.968Z,9.42
2022-10-09T20:19:16.936Z,9.39
2022-10-09T20:21:43.891Z,9.39
2022-10-09T20:24:10.784Z,9.39
2022-10-09T20:26:42.211Z,9.40
2022-10-09T20:29:10.035Z,9.40
2022-10-09T20:31:37.056Z,9.36
2022-10-09T20:34:04.082Z,9.34
2022-10-09T20:36:35.493Z,9.33
2022-10-09T20:39:13.202Z,9.38
2022-10-09T20:41:41.684Z,9.37
2022-10-09T20:44:09.027Z,9.33
2022-10-09T20:46:38.095Z,9.37
2022-10-09T20:49:07.189Z,9.37
2022-10-09T20:51:38.404Z,9.30
2022-10-09T20:54:06.910Z,9.32
2022-10-09T20:56:34.407Z,9.35
2022-10-09T20:59:01.570Z,9.36
2022-10-09T21:01:29.093Z,9.38
2022-10-09T21:03:57.216Z,9.39
2022-10-09T21:06:24.188Z,9.38
2022-10-09T21:08:51.140Z,9.40
2022-10-09T21:11:19.093Z,9.42
2022-10-09T21:13:46.339Z,9.40
2022-10-09T21:16:15.667Z,9.40
2022-10-09T21:18:42.789Z,9.39
2022-10-09T21:21:12.641Z,9.41
2022-10-09T21:23:40.403Z,9.39
2022-10-09T21:26:12.417Z,9.40
2022-10-09T21:28:39.838Z,9.40
2022-10-09T21:31:11.941Z,9.40
2022-10-09T21:33:38.938Z,9.37
2022-10-09T21:36:30.573Z,9.37
2022-10-09T21:38:58.295Z,9.29
2022-10-09T21:41:25.354Z,9.27
2022-10-09T21:43:52.396Z,9.32
2022-10-09T21:46:24.643Z,9.30
2022-10-09T21:48:51.631Z,9.27
2022-10-09T21:51:18.740Z,9.20
2022-10-09T21:53:45.813Z,9.17
2022-10-09T21:56:12.828Z,9.13
2022-10-09T21:58:41.430Z,9.10
2022-10-09T22:01:17.212Z,9.09
2022-10-09T22:03:47.488Z,9.10
2022-10-09T22:06:19.224Z,9.11
2022-10-09T22:08:48.074Z,9.16
2022-10-09T22:11:15.707Z,9.15
2022-10-09T22:13:42.725Z,9.14
2022-10-09T22:16:12.354Z,9.10
2022-10-09T22:18:39.279Z,9.09
2022-10-09T22:21:08.724Z,9.11
2022-10-09T22:23:36.378Z,9.07
2022-10-09T22:26:06.413Z,9.08
2022-10-09T22:28:34.151Z,9.07
2022-10-09T22:31:08.482Z,9.05
2022-10-09T22:33:36.548Z,9.05
2022-10-09T22:36:10.424Z,9.03
2022-10-09T22:38:40.593Z,9.02
2022-10-09T22:41:11.772Z,9.00
2022-10-09T22:43:39.952Z,8.98
2022-10-09T22:46:11.660Z,8.97
2022-10-09T22:48:39.258Z,8.95
2022-10-09T22:51:08.094Z,8.90
2022-10-09T22:53:35.715Z,8.87
2022-10-09T22:56:07.620Z,8.93
2022-10-09T22:58:34.795Z,8.87
2022-10-09T23:01:08.688Z,8.84
2022-10-09T23:03:36.526Z,8.84
2022-10-09T23:06:07.966Z,8.86
2022-10-09T23:08:34.991Z,8.83
2022-10-09T23:11:01.850Z,8.80
2022-10-09T23:13:28.901Z,8.76
2022-10-09T23:15:55.851Z,8.76
2022-10-09T23:18:22.714Z,8.73
2022-10-09T23:20:49.633Z,8.76
2022-10-09T23:23:16.743Z,8.72
2022-10-09T23:25:43.848Z,8.72
2022-10-09T23:28:13.824Z,8.70
2022-10-09T23:30:42.846Z,8.68
2022-10-09T23:33:09.735Z,8.68
2022-10-09T23:35:41.056Z,8.71
2022-10-09T23:38:08.290Z,8.70
2022-10-09T23:40:35.281Z,8.69
2022-10-09T23:43:02.265Z,8.67
2022-10-09T23:45:29.252Z,8.67
2022-10-09T23:47:56.207Z,8.66
2022-10-09T23:50:23.135Z,8.67
2022-10-09T23:52:50.426Z,8.64
2022-10-09T23:55:17.523Z,8.65
2022-10-09T23:57:44.349Z,8.64
